createdAt,value
2019-01-03T19:54:27.998Z,33.78
2019-01-03T21:05:01.990Z,33.66
2019-01-03T21:06:01.899Z,33.68
2019-01-03T21:07:01.920Z,33.62
2019-01-03T21:08:01.925Z,33.63
2019-01-03T21:09:01.739Z,33.62
2019-01-03T21:10:01.761Z,33.56
2019-01-03T21:11:01.919Z,33.56
2019-01-03T21:12:01.708Z,33.62
2019-01-03T21:13:01.666Z,33.56
2019-01-03T21:14:01.677Z,33.39
2019-01-03T21:15:01.650Z,33.47
2019-01-03T21:16:01.691Z,33.53
2019-01-03T21:17:01.678Z,33.58
2019-01-03T21:18:01.567Z,33.61
2019-01-03T21:19:01.856Z,33.68
2019-01-03T21:20:01.888Z,33.78
2019-01-03T21:21:01.615Z,33.68
2019-01-03T21:22:01.641Z,33.53
2019-01-03T21:23:01.469Z,33.56
2019-01-03T21:24:01.472Z,33.61
2019-01-03T21:25:02.289Z,33.58
2019-01-03T21:26:01.459Z,33.69
2019-01-03T21:28:01.449Z,33.61
2019-01-03T21:29:01.353Z,33.58
2019-01-03T21:30:01.441Z,33.39
2019-01-03T21:31:01.313Z,33.46
2019-01-03T21:32:01.321Z,33.55
2019-01-03T21:33:01.347Z,33.39
2019-01-03T21:34:01.244Z,33.39
2019-01-03T21:35:01.254Z,33.53
2019-01-03T21:36:01.197Z,33.55
2019-01-03T21:37:01.384Z,33.41
2019-01-03T21:38:01.302Z,33.36
2019-01-03T21:39:01.143Z,33.26
2019-01-03T21:40:01.244Z,33.21
2019-01-03T21:41:01.109Z,33.20
2019-01-03T21:42:01.096Z,33.16
2019-01-03T21:43:01.125Z,33.09
2019-01-03T21:44:01.144Z,32.90
2019-01-03T21:45:01.022Z,32.81
2019-01-03T21:46:00.983Z,32.76
2019-01-03T21:47:01.558Z,32.74
2019-01-03T21:48:00.961Z,32.79
2019-01-03T21:49:01.302Z,32.74
2019-01-03T21:50:00.924Z,32.76
2019-01-03T21:51:00.858Z,32.72
2019-01-03T21:52:00.926Z,32.83
2019-01-03T21:53:00.815Z,32.69
2019-01-03T21:54:00.943Z,32.67
2019-01-03T21:55:00.800Z,32.74
2019-01-03T21:56:00.767Z,32.68
2019-01-03T21:57:00.774Z,32.67
2019-01-03T21:58:00.716Z,32.59
2019-01-03T21:59:00.698Z,32.72
2019-01-03T22:00:00.847Z,32.59
2019-01-03T22:01:00.668Z,32.69
2019-01-03T22:02:00.674Z,32.79
2019-01-03T22:03:00.613Z,32.59
2019-01-03T22:04:00.823Z,32.62
2019-01-03T22:05:00.712Z,32.67
2019-01-03T22:06:00.799Z,32.62
2019-01-03T22:07:00.539Z,32.52
2019-01-03T22:08:00.544Z,32.30
2019-01-03T22:09:00.473Z,32.42
2019-01-03T22:10:00.463Z,32.31
2019-01-03T22:11:00.540Z,32.46
2019-01-03T22:12:00.437Z,32.31
2019-01-03T22:13:00.524Z,32.32
2019-01-03T22:14:00.391Z,32.24
2019-01-03T22:15:00.385Z,32.27
2019-01-03T22:16:00.746Z,32.30
2019-01-03T22:17:00.428Z,32.16
2019-01-03T22:18:00.350Z,32.00
2019-01-03T22:19:00.313Z,31.82
2019-01-03T22:20:00.258Z,31.70
2019-01-03T22:21:00.386Z,31.60
2019-01-03T22:22:00.213Z,31.52
2019-01-03T22:23:00.208Z,31.41
2019-01-03T22:24:00.163Z,31.26
2019-01-03T22:25:00.161Z,31.16
2019-01-03T22:26:00.203Z,31.22
2019-01-03T22:27:00.293Z,31.18
2019-01-03T22:28:00.828Z,31.13
2019-01-03T22:29:01.937Z,30.94
2019-01-03T22:30:00.969Z,30.97
2019-01-03T22:31:00.419Z,30.71
2019-01-03T22:32:00.063Z,30.73
2019-01-03T22:33:00.417Z,30.69
2019-01-03T22:33:59.950Z,30.62
2019-01-03T22:35:00.350Z,30.66
2019-01-03T22:36:00.080Z,30.56
2019-01-03T22:37:00.476Z,30.45
2019-01-03T22:38:00.490Z,30.48
2019-01-03T22:38:59.914Z,30.35
2019-01-03T22:39:59.845Z,30.45
2019-01-03T22:40:59.829Z,30.19
2019-01-03T22:42:00.156Z,30.13
2019-01-03T22:43:00.343Z,30.09
2019-01-03T22:43:59.875Z,30.04
2019-01-03T22:44:59.733Z,29.97
2019-01-03T22:45:59.755Z,29.98
2019-01-03T22:46:59.705Z,29.98
2019-01-03T22:48:00.021Z,29.85
2019-01-03T22:48:59.724Z,29.88
2019-01-03T22:49:59.641Z,29.85
2019-01-03T22:50:59.906Z,29.85
2019-01-03T22:52:00.403Z,29.85
2019-01-03T22:52:59.795Z,29.73
2019-01-03T22:53:59.654Z,29.69
2019-01-03T22:54:59.704Z,29.61
2019-01-03T22:55:59.514Z,29.61
2019-01-03T22:56:59.741Z,29.55
2019-01-03T22:57:59.405Z,29.54
2019-01-03T22:58:59.443Z,29.42
2019-01-03T22:59:59.474Z,29.38
2019-01-03T23:00:59.460Z,29.33
2019-01-03T23:01:59.409Z,29.38
2019-01-03T23:02:59.288Z,29.39
2019-01-03T23:03:59.287Z,29.33
2019-01-03T23:04:59.285Z,29.18
2019-01-03T23:05:59.326Z,29.28
2019-01-03T23:06:59.224Z,29.23
2019-01-03T23:07:59.202Z,29.14
2019-01-03T23:08:59.172Z,29.15
2019-01-03T23:09:59.211Z,29.10
2019-01-03T23:10:59.217Z,29.10
2019-01-03T23:11:59.120Z,29.01
2019-01-03T23:12:59.074Z,29.02
2019-01-03T23:13:59.216Z,28.92
2019-01-03T23:14:59.055Z,28.90
2019-01-03T23:15:59.282Z,28.85
2019-01-03T23:16:59.009Z,28.83
2019-01-03T23:17:59.076Z,28.75
2019-01-03T23:18:59.054Z,28.82
2019-01-03T23:19:59.310Z,28.76
2019-01-03T23:21:00.845Z,28.68
2019-01-03T23:21:58.950Z,28.67
2019-01-03T23:22:58.909Z,28.60
2019-01-03T23:24:00.202Z,28.55
2019-01-03T23:24:58.819Z,28.45
2019-01-03T23:25:58.892Z,28.41
2019-01-03T23:26:58.953Z,28.35
2019-01-03T23:27:58.808Z,28.26
2019-01-03T23:28:58.725Z,28.26
2019-01-03T23:29:58.685Z,28.16
2019-01-03T23:30:58.676Z,28.23
2019-01-03T23:31:58.792Z,28.08
2019-01-03T23:32:58.676Z,28.05
2019-01-03T23:33:58.791Z,28.01
2019-01-03T23:34:58.613Z,27.91
2019-01-03T23:35:58.834Z,27.83
2019-01-03T23:36:58.776Z,27.89
2019-01-03T23:37:58.514Z,27.86
2019-01-03T23:38:58.513Z,27.74
2019-01-03T23:39:58.464Z,27.72
2019-01-03T23:40:58.524Z,27.65
2019-01-03T23:41:58.409Z,27.52
2019-01-03T23:42:58.454Z,27.53
2019-01-03T23:43:59.212Z,27.51
2019-01-03T23:44:58.800Z,27.42
2019-01-03T23:47:59.132Z,27.23
2019-01-03T23:51:58.594Z,27.09
2019-01-03T23:52:59.261Z,27.09
2019-01-03T23:53:58.224Z,26.96
2019-01-03T23:54:58.101Z,26.91
2019-01-03T23:55:58.089Z,26.86
2019-01-03T23:56:58.081Z,26.74
2019-01-03T23:57:58.115Z,26.82
2019-01-03T23:58:58.631Z,26.74
2019-01-03T23:59:57.999Z,26.72
